createdAt,value
2019-05-16T00:00:10.368Z,57.23
2019-05-16T00:02:38.797Z,57.35
2019-05-16T00:05:08.649Z,57.54
2019-05-16T00:07:38.956Z,57.29
2019-05-16T00:10:08.351Z,57.69
2019-05-16T00:12:39.653Z,57.46
2019-05-16T00:15:08.967Z,57.52
2019-05-16T00:17:38.558Z,57.70
2019-05-16T00:20:09.310Z,58.07
2019-05-16T00:22:39.460Z,58.07
2019-05-16T00:25:08.826Z,58.34
2019-05-16T00:27:38.721Z,58.27
2019-05-16T00:30:08.943Z,58.79
2019-05-16T00:32:39.095Z,59.13
2019-05-16T00:35:09.323Z,59.15
2019-05-16T00:37:39.217Z,59.41
2019-05-16T00:40:08.584Z,59.28
2019-05-16T00:42:38.999Z,59.07
2019-05-16T00:45:09.349Z,59.17
2019-05-16T00:47:39.054Z,59.33
2019-05-16T00:50:08.932Z,59.66
2019-05-16T00:52:39.404Z,59.62
2019-05-16T00:55:08.501Z,59.76
2019-05-16T00:57:39.007Z,60.36
2019-05-16T01:00:09.245Z,60.14
2019-05-16T01:02:38.288Z,60.22
2019-05-16T01:05:08.502Z,60.52
2019-05-16T01:07:39.132Z,60.79
2019-05-16T01:10:08.963Z,61.11
2019-05-16T01:12:39.034Z,61.47
2019-05-16T01:15:08.179Z,61.58
2019-05-16T01:17:38.787Z,61.39
2019-05-16T01:20:08.612Z,61.38
2019-05-16T01:22:38.499Z,61.40
2019-05-16T01:25:09.337Z,62.20
2019-05-16T01:27:38.584Z,62.40
2019-05-16T01:30:09.303Z,62.21
2019-05-16T01:32:39.302Z,62.53
2019-05-16T01:35:08.446Z,62.61
2019-05-16T01:37:38.361Z,63.01
2019-05-16T01:40:08.381Z,63.10
2019-05-16T01:42:38.584Z,62.77
2019-05-16T01:45:08.406Z,63.14
2019-05-16T01:47:39.044Z,62.79
2019-05-16T01:50:08.674Z,62.92
2019-05-16T01:52:38.318Z,62.98
2019-05-16T01:55:08.264Z,63.51
2019-05-16T01:57:39.020Z,63.91
2019-05-16T02:00:08.433Z,63.86
2019-05-16T02:02:38.575Z,63.99
2019-05-16T02:05:08.413Z,64.32
2019-05-16T02:07:38.713Z,63.96
2019-05-16T02:10:08.549Z,63.93
2019-05-16T02:12:38.472Z,63.85
2019-05-16T02:15:08.564Z,63.90
2019-05-16T02:17:38.499Z,63.90
2019-05-16T02:20:08.699Z,64.42
2019-05-16T02:22:38.937Z,63.82
2019-05-16T02:25:08.947Z,64.52
2019-05-16T02:27:38.211Z,63.93
2019-05-16T02:30:11.959Z,64.34
2019-05-16T02:32:41.373Z,64.38
2019-05-16T02:35:11.858Z,64.30
2019-05-16T02:37:42.126Z,64.77
2019-05-16T02:40:12.036Z,64.23
2019-05-16T02:42:41.946Z,64.65
2019-05-16T02:45:11.351Z,64.55
2019-05-16T02:47:42.367Z,64.43
2019-05-16T02:50:12.261Z,64.62
2019-05-16T02:52:41.378Z,64.47
2019-05-16T02:55:11.730Z,64.57
2019-05-16T02:57:41.524Z,64.48
2019-05-16T03:00:12.465Z,64.13
2019-05-16T03:02:41.953Z,64.27
2019-05-16T03:05:12.262Z,64.52
2019-05-16T03:07:47.372Z,64.58
2019-05-16T03:10:13.875Z,64.53
2019-05-16T03:12:43.869Z,64.26
2019-05-16T03:15:12.763Z,64.37
2019-05-16T03:17:44.250Z,64.43
2019-05-16T03:20:13.862Z,64.74
2019-05-16T03:22:42.807Z,65.15
2019-05-16T03:25:11.853Z,65.12
2019-05-16T03:27:41.520Z,65.15
2019-05-16T03:30:15.877Z,64.32
2019-05-16T03:32:44.671Z,64.26
2019-05-16T03:35:15.762Z,64.52
2019-05-16T03:37:54.519Z,64.33
2019-05-16T03:40:16.029Z,65.14
2019-05-16T03:42:44.458Z,65.15
2019-05-16T03:45:13.116Z,65.60
2019-05-16T03:47:42.824Z,65.81
2019-05-16T03:50:11.674Z,66.27
2019-05-16T03:52:43.305Z,65.86
2019-05-16T03:55:11.397Z,65.61
2019-05-16T03:57:41.541Z,65.30
2019-05-16T04:00:11.707Z,65.39
2019-05-16T04:02:42.000Z,65.35
2019-05-16T04:05:11.552Z,65.69
2019-05-16T04:07:41.698Z,65.26
2019-05-16T04:10:11.266Z,64.99
2019-05-16T04:12:41.894Z,64.61
2019-05-16T04:15:11.245Z,64.42
2019-05-16T04:17:41.230Z,64.57
2019-05-16T04:20:11.678Z,64.00
2019-05-16T04:22:41.008Z,64.03
2019-05-16T04:25:11.412Z,64.29
2019-05-16T04:27:41.681Z,63.99
2019-05-16T04:30:11.720Z,63.62
2019-05-16T04:32:41.913Z,63.23
2019-05-16T04:35:11.369Z,63.38
2019-05-16T04:37:42.146Z,63.40
2019-05-16T04:40:11.922Z,63.33
2019-05-16T04:42:41.644Z,62.67
2019-05-16T04:45:11.845Z,63.03
2019-05-16T04:47:41.589Z,63.01
2019-05-16T04:50:11.547Z,63.16
2019-05-16T04:52:41.833Z,62.52
2019-05-16T04:55:11.981Z,63.09
2019-05-16T04:57:42.134Z,63.11
2019-05-16T05:00:11.927Z,62.29
2019-05-16T05:02:41.931Z,62.02
2019-05-16T05:05:12.680Z,61.69
2019-05-16T05:07:41.372Z,62.37
2019-05-16T05:10:11.250Z,62.92
2019-05-16T05:12:40.874Z,64.15
2019-05-16T05:15:11.775Z,64.24
2019-05-16T05:17:41.225Z,64.66
2019-05-16T05:20:10.877Z,64.33
2019-05-16T05:22:39.894Z,63.33
2019-05-16T05:25:10.990Z,63.12
2019-05-16T05:27:41.271Z,63.67
2019-05-16T05:30:10.819Z,63.42
2019-05-16T05:32:41.379Z,63.65
2019-05-16T05:35:10.743Z,62.86
2019-05-16T05:37:41.053Z,62.26
2019-05-16T05:40:10.737Z,61.65
2019-05-16T05:42:40.050Z,61.94
2019-05-16T05:45:11.052Z,61.95
2019-05-16T05:47:40.189Z,60.71
2019-05-16T05:50:11.159Z,61.00
2019-05-16T05:52:41.205Z,59.91
2019-05-16T05:55:10.546Z,60.85
2019-05-16T05:57:40.330Z,60.16
2019-05-16T06:00:10.116Z,59.52
2019-05-16T06:02:40.288Z,57.98
2019-05-16T06:05:10.722Z,56.27
2019-05-16T06:07:40.553Z,55.85
2019-05-16T06:10:10.561Z,52.92
2019-05-16T06:12:40.828Z,53.85
2019-05-16T06:15:12.624Z,52.94
2019-05-16T06:17:40.213Z,55.28
2019-05-16T06:20:14.325Z,54.16
2019-05-16T06:22:40.296Z,54.08
2019-05-16T06:25:13.291Z,53.62
2019-05-16T06:27:40.784Z,55.22
2019-05-16T06:30:11.574Z,55.04
2019-05-16T06:32:40.123Z,54.11
2019-05-16T06:35:09.734Z,54.66
2019-05-16T06:37:40.693Z,55.40
2019-05-16T06:40:10.946Z,55.73
2019-05-16T06:42:40.260Z,55.28
2019-05-16T06:45:10.308Z,55.46
2019-05-16T06:47:39.733Z,55.70
2019-05-16T06:50:11.105Z,55.37
2019-05-16T06:52:40.927Z,56.66
2019-05-16T06:55:11.780Z,55.82
2019-05-16T06:57:43.081Z,56.12
2019-05-16T07:00:13.055Z,55.19
2019-05-16T07:02:41.466Z,54.89
2019-05-16T07:05:10.379Z,54.89
2019-05-16T07:07:40.494Z,56.66
2019-05-16T07:10:09.924Z,56.90
2019-05-16T07:12:41.072Z,54.89
2019-05-16T07:15:12.325Z,56.13
2019-05-16T07:17:39.994Z,54.89
2019-05-16T07:20:10.411Z,55.19
2019-05-16T07:22:40.696Z,55.74
2019-05-16T07:25:10.583Z,54.58
2019-05-16T07:27:40.071Z,55.19
2019-05-16T07:30:10.756Z,55.26
2019-05-16T07:32:40.477Z,54.17
2019-05-16T07:35:10.007Z,54.15
2019-05-16T07:37:40.029Z,54.27
2019-05-16T07:40:19.349Z,54.97
2019-05-16T07:42:40.358Z,53.87
2019-05-16T07:45:10.569Z,54.33
2019-05-16T07:47:40.345Z,54.98
2019-05-16T07:50:10.468Z,54.36
2019-05-16T07:52:40.230Z,55.45
2019-05-16T07:55:10.780Z,54.52
2019-05-16T07:57:39.908Z,52.77
2019-05-16T08:00:10.211Z,52.22
2019-05-16T08:02:40.286Z,52.84
2019-05-16T08:05:10.222Z,50.34
2019-05-16T08:07:40.741Z,50.43
2019-05-16T08:10:11.078Z,48.26
2019-05-16T08:12:40.771Z,48.90
2019-05-16T08:15:10.952Z,50.55
2019-05-16T08:17:44.216Z,49.58
2019-05-16T08:22:41.651Z,50.50
2019-05-16T08:25:11.190Z,50.44
2019-05-16T08:33:21.384Z,50.35
2019-05-16T08:35:11.286Z,49.42
2019-05-16T08:37:46.080Z,48.69
2019-05-16T08:40:11.451Z,47.77
2019-05-16T08:42:41.558Z,48.10
2019-05-16T08:45:12.686Z,47.54
2019-05-16T08:50:06.253Z,47.07
2019-05-16T08:50:10.011Z,50.18
2019-05-16T08:50:10.957Z,50.27
2019-05-16T08:50:14.465Z,46.81
2019-05-16T08:52:43.537Z,47.23
2019-05-16T08:55:13.455Z,48.39
2019-05-16T08:57:42.146Z,48.13
2019-05-16T09:00:14.650Z,49.25
2019-05-16T09:05:13.498Z,48.98
2019-05-16T09:07:41.799Z,47.46
2019-05-16T09:10:25.133Z,48.01
2019-05-16T09:10:31.318Z,50.80
2019-05-16T09:10:45.728Z,48.34
2019-05-16T09:12:40.896Z,46.51
2019-05-16T09:15:09.662Z,46.24
2019-05-16T09:17:38.600Z,47.29
2019-05-16T09:20:07.883Z,47.53
2019-05-16T09:22:37.756Z,46.50
2019-05-16T09:25:08.028Z,44.88
2019-05-16T09:27:38.131Z,44.88
2019-05-16T09:30:07.797Z,45.65
2019-05-16T09:32:37.081Z,43.80
2019-05-16T09:35:09.667Z,45.22
2019-05-16T09:37:38.067Z,41.92
2019-05-16T09:40:08.206Z,44.30
2019-05-16T09:42:37.347Z,43.98
2019-05-16T09:45:07.697Z,42.96
2019-05-16T09:47:39.027Z,42.95
2019-05-16T09:50:08.617Z,43.94
2019-05-16T09:52:37.186Z,41.88
2019-05-16T09:55:07.342Z,44.83
2019-05-16T09:57:37.599Z,44.24
2019-05-16T10:00:09.058Z,43.13
2019-05-16T10:02:37.563Z,43.51
2019-05-16T10:05:13.359Z,41.84
2019-05-16T10:07:38.828Z,41.25
2019-05-16T10:10:08.255Z,40.19
2019-05-16T10:12:37.169Z,41.94
2019-05-16T10:15:07.550Z,39.08
2019-05-16T10:17:36.996Z,41.87
2019-05-16T10:20:08.129Z,40.60
2019-05-16T10:22:37.357Z,39.20
2019-05-16T10:25:06.749Z,39.03
2019-05-16T10:27:36.790Z,38.62
2019-05-16T10:30:08.932Z,38.32
2019-05-16T10:32:39.872Z,38.70
2019-05-16T10:35:09.084Z,38.15
2019-05-16T10:37:37.707Z,39.59
2019-05-16T10:40:07.430Z,37.91
2019-05-16T10:42:37.972Z,36.75
2019-05-16T10:45:09.029Z,35.07
2019-05-16T10:47:37.379Z,37.23
2019-05-16T10:50:07.479Z,37.23
2019-05-16T10:52:36.696Z,41.00
2019-05-16T10:55:08.279Z,39.17
2019-05-16T10:57:37.837Z,38.44
2019-05-16T11:00:21.483Z,36.63
2019-05-16T11:02:39.362Z,39.64
2019-05-16T11:05:25.117Z,39.59
2019-05-16T11:07:38.123Z,41.87
2019-05-16T11:10:07.698Z,40.10
2019-05-16T11:12:47.687Z,42.54
2019-05-16T11:15:11.254Z,41.24
2019-05-16T11:17:40.203Z,45.86
2019-05-16T11:20:09.109Z,43.29
2019-05-16T11:22:37.488Z,41.05
2019-05-16T11:25:20.809Z,40.77
2019-05-16T11:27:37.640Z,43.06
2019-05-16T11:30:07.759Z,44.64
2019-05-16T11:32:37.506Z,41.62
2019-05-16T11:35:09.685Z,45.69
2019-05-16T11:37:38.102Z,43.70
2019-05-16T11:40:08.441Z,40.76
2019-05-16T11:42:38.026Z,41.95
2019-05-16T11:45:10.374Z,41.18
2019-05-16T11:47:39.352Z,39.46
2019-05-16T11:50:09.201Z,39.09
2019-05-16T11:52:40.662Z,42.67
2019-05-16T11:55:08.655Z,44.17
2019-05-16T11:57:37.905Z,45.20
2019-05-16T12:00:09.347Z,43.60
2019-05-16T12:02:42.244Z,43.57
2019-05-16T12:05:08.422Z,44.16
2019-05-16T12:07:43.826Z,45.74
2019-05-16T12:10:08.521Z,45.49
2019-05-16T12:12:37.187Z,47.35
2019-05-16T12:15:07.875Z,43.78
2019-05-16T12:17:36.463Z,44.27
2019-05-16T12:20:07.763Z,41.59
2019-05-16T12:22:37.659Z,42.58
2019-05-16T12:25:08.128Z,41.43
2019-05-16T12:27:42.233Z,41.43
2019-05-16T12:30:13.816Z,41.13
2019-05-16T12:32:38.623Z,42.08
2019-05-16T12:35:07.456Z,44.29
2019-05-16T12:37:37.299Z,45.52
2019-05-16T12:40:09.116Z,44.00
2019-05-16T12:42:37.600Z,43.55
2019-05-16T12:45:09.366Z,45.52
2019-05-16T12:47:37.887Z,43.43
2019-05-16T12:50:08.705Z,46.03
2019-05-16T12:52:38.314Z,44.12
2019-05-16T12:55:10.334Z,44.29
2019-05-16T12:57:38.732Z,44.18
2019-05-16T13:00:15.032Z,43.23
2019-05-16T13:02:40.705Z,44.99
2019-05-16T13:05:09.502Z,43.56
2019-05-16T13:07:37.934Z,44.47
2019-05-16T13:10:08.303Z,44.11
2019-05-16T13:12:37.941Z,45.20
2019-05-16T13:15:08.665Z,45.56
2019-05-16T13:17:37.561Z,46.96
2019-05-16T13:20:08.105Z,45.67
2019-05-16T13:22:38.502Z,45.67
2019-05-16T13:25:07.781Z,47.35
2019-05-16T13:27:37.279Z,45.80
2019-05-16T13:30:12.025Z,45.66
2019-05-16T13:32:40.516Z,48.21
2019-05-16T13:35:09.162Z,49.40
2019-05-16T13:37:37.607Z,47.99
2019-05-16T13:40:10.089Z,49.59
2019-05-16T13:42:38.541Z,49.21
2019-05-16T13:45:08.060Z,50.22
2019-05-16T13:47:37.696Z,50.78
2019-05-16T13:50:12.169Z,50.74
2019-05-16T13:52:38.526Z,51.17
2019-05-16T13:55:08.018Z,53.27
2019-05-16T13:57:37.320Z,54.43
2019-05-16T14:00:09.020Z,54.39
2019-05-16T14:02:38.402Z,55.53
2019-05-16T14:05:08.708Z,56.77
2019-05-16T14:07:37.806Z,55.08
2019-05-16T14:10:08.679Z,56.63
2019-05-16T14:12:37.101Z,56.72
2019-05-16T14:15:09.276Z,57.87
2019-05-16T14:17:37.783Z,56.48
2019-05-16T14:20:14.527Z,55.99
2019-05-16T14:22:38.150Z,58.09
2019-05-16T14:25:07.342Z,58.05
2019-05-16T14:27:38.233Z,58.32
2019-05-16T14:30:08.579Z,56.70
2019-05-16T14:32:42.007Z,56.70
2019-05-16T14:35:08.677Z,58.92
2019-05-16T14:37:38.057Z,59.05
2019-05-16T14:40:07.403Z,60.71
2019-05-16T14:42:38.761Z,60.96
2019-05-16T14:45:16.990Z,60.44
2019-05-16T14:47:47.511Z,59.72
2019-05-16T14:50:17.037Z,59.95
2019-05-16T14:52:47.312Z,59.40
2019-05-16T14:55:18.564Z,61.95
2019-05-16T14:57:47.495Z,62.85
2019-05-16T15:00:18.365Z,61.39
2019-05-16T15:02:48.251Z,61.26
2019-05-16T15:05:18.198Z,62.03
2019-05-16T15:07:48.351Z,64.06
2019-05-16T15:10:17.170Z,65.00
2019-05-16T15:12:46.783Z,64.73
2019-05-16T15:15:24.193Z,64.85
2019-05-16T15:20:23.267Z,66.48
2019-05-16T15:22:51.848Z,66.65
2019-05-16T15:25:20.322Z,66.87
2019-05-16T15:27:50.661Z,65.41
2019-05-16T15:30:20.365Z,64.53
2019-05-16T15:32:51.092Z,66.55
2019-05-16T15:35:21.964Z,65.73
2019-05-16T15:37:50.569Z,66.22
2019-05-16T15:40:19.217Z,64.98
2019-05-16T15:42:47.664Z,63.87
2019-05-16T15:45:19.289Z,63.42
2019-05-16T15:47:47.269Z,63.90
2019-05-16T15:50:18.213Z,63.55
2019-05-16T15:52:47.348Z,63.84
2019-05-16T15:55:17.907Z,63.46
2019-05-16T15:57:47.549Z,64.80
2019-05-16T16:00:18.484Z,65.28
2019-05-16T16:02:48.265Z,65.83
2019-05-16T16:05:17.679Z,66.25
2019-05-16T16:07:48.252Z,66.26
2019-05-16T16:10:19.774Z,64.86
2019-05-16T16:12:50.436Z,66.64
2019-05-16T16:15:19.015Z,65.80
2019-05-16T16:17:47.455Z,65.66
2019-05-16T16:20:17.050Z,65.66
2019-05-16T16:22:47.002Z,64.59
2019-05-16T16:25:17.526Z,64.23
2019-05-16T16:27:45.928Z,65.13
2019-05-16T16:30:14.487Z,65.80
2019-05-16T16:32:42.904Z,66.50
2019-05-16T16:35:14.039Z,66.01
2019-05-16T16:37:41.585Z,66.02
2019-05-16T16:40:12.058Z,64.85
2019-05-16T16:42:40.437Z,64.76
2019-05-16T16:45:09.455Z,64.25
2019-05-16T16:47:38.142Z,63.96
2019-05-16T16:50:08.115Z,64.03
2019-05-16T16:52:37.814Z,65.09
2019-05-16T16:55:07.933Z,63.97
2019-05-16T16:57:38.463Z,63.59
2019-05-16T17:00:09.162Z,64.19
2019-05-16T17:02:37.822Z,64.43
2019-05-16T17:05:11.278Z,64.58
2019-05-16T17:07:38.090Z,62.83
2019-05-16T17:10:07.950Z,64.08
2019-05-16T17:12:41.553Z,63.67
2019-05-16T17:15:09.166Z,64.77
2019-05-16T17:17:37.943Z,65.34
2019-05-16T17:20:08.774Z,65.40
2019-05-16T17:22:37.980Z,65.67
2019-05-16T17:25:09.358Z,65.81
2019-05-16T17:27:37.981Z,67.29
2019-05-16T17:30:20.616Z,67.09
2019-05-16T17:32:49.109Z,67.09
2019-05-16T17:35:19.249Z,68.02
2019-05-16T17:37:48.994Z,68.56
2019-05-16T17:40:18.393Z,67.31
2019-05-16T17:42:47.944Z,68.85
2019-05-16T17:45:17.989Z,69.03
2019-05-16T17:47:47.005Z,67.76
2019-05-16T17:50:17.558Z,69.33
2019-05-16T17:52:47.659Z,68.96
2019-05-16T17:55:18.227Z,69.03
2019-05-16T17:57:47.981Z,69.34
2019-05-16T18:00:25.328Z,69.62
2019-05-16T18:02:47.644Z,70.15
2019-05-16T18:05:17.149Z,70.84
2019-05-16T18:07:47.416Z,70.82
2019-05-16T18:10:17.899Z,70.39
2019-05-16T18:12:48.003Z,69.90
2019-05-16T18:15:19.714Z,69.81
2019-05-16T18:17:49.070Z,70.45
2019-05-16T18:20:18.977Z,70.56
2019-05-16T18:22:48.968Z,69.82
2019-05-16T18:25:17.573Z,70.23
2019-05-16T18:27:46.119Z,70.63
2019-05-16T18:30:16.885Z,70.43
2019-05-16T18:32:45.255Z,70.09
2019-05-16T18:35:16.551Z,71.17
2019-05-16T18:37:46.290Z,70.86
2019-05-16T18:40:16.562Z,71.64
2019-05-16T18:42:47.731Z,71.50
2019-05-16T18:45:16.645Z,73.00
2019-05-16T18:47:46.943Z,73.65
2019-05-16T18:50:18.089Z,76.32
2019-05-16T18:52:47.039Z,76.85
2019-05-16T18:55:16.876Z,78.88
2019-05-16T18:57:47.295Z,79.33
2019-05-16T19:00:17.798Z,80.12
2019-05-16T19:02:47.882Z,80.08
2019-05-16T19:05:17.291Z,81.12
2019-05-16T19:07:47.529Z,81.42
2019-05-16T19:10:17.648Z,82.20
2019-05-16T19:12:47.763Z,82.42
2019-05-16T19:15:17.730Z,83.35
2019-05-16T19:17:46.468Z,83.51
2019-05-16T19:20:17.129Z,83.25
2019-05-16T19:22:45.741Z,83.55
2019-05-16T19:25:14.589Z,83.31
2019-05-16T19:27:43.065Z,83.31
2019-05-16T19:32:39.087Z,83.33
2019-05-16T19:35:10.571Z,83.18
2019-05-16T19:37:40.759Z,84.49
2019-05-16T19:40:09.870Z,85.08
2019-05-16T19:42:38.285Z,86.19
2019-05-16T19:45:07.816Z,86.67
2019-05-16T19:47:40.827Z,86.62
2019-05-16T19:50:07.689Z,86.37
2019-05-16T19:52:36.836Z,86.02
2019-05-16T19:55:07.311Z,86.02
2019-05-16T19:57:37.412Z,87.13
2019-05-16T20:00:08.054Z,87.28
2019-05-16T20:02:36.995Z,86.90
2019-05-16T20:05:08.030Z,87.50
2019-05-16T20:07:37.287Z,87.37
2019-05-16T20:10:10.789Z,87.56
2019-05-16T20:12:39.464Z,88.47
2019-05-16T20:15:11.687Z,88.27
2019-05-16T20:17:50.926Z,87.66
2019-05-16T20:20:09.840Z,87.71
2019-05-16T20:22:38.328Z,87.58
2019-05-16T20:25:07.430Z,87.29
2019-05-16T20:27:36.860Z,87.66
2019-05-16T20:30:07.589Z,87.07
2019-05-16T20:32:37.126Z,87.37
2019-05-16T20:35:09.209Z,87.30
2019-05-16T20:37:37.973Z,87.47
2019-05-16T20:40:09.226Z,87.85
2019-05-16T20:42:37.968Z,88.06
2019-05-16T20:45:10.470Z,87.86
2019-05-16T20:47:39.053Z,88.29
2019-05-16T20:50:08.696Z,88.47
2019-05-16T20:52:37.979Z,88.47
2019-05-16T20:55:07.737Z,87.63
2019-05-16T20:57:37.691Z,88.47
2019-05-16T21:00:08.145Z,88.66
2019-05-16T21:02:38.034Z,88.53
2019-05-16T21:05:08.011Z,89.33
2019-05-16T21:07:37.474Z,89.41
2019-05-16T21:10:08.300Z,90.30
2019-05-16T21:12:40.244Z,91.03
2019-05-16T21:15:08.544Z,90.99
2019-05-16T21:17:37.666Z,91.06
2019-05-16T21:20:07.598Z,91.19
2019-05-16T21:22:37.059Z,91.21
2019-05-16T21:25:06.169Z,91.31
2019-05-16T21:27:37.547Z,91.69
2019-05-16T21:30:07.526Z,91.59
2019-05-16T21:32:36.675Z,91.98
2019-05-16T21:35:07.435Z,92.21
2019-05-16T21:37:37.439Z,92.63
2019-05-16T21:40:08.066Z,93.01
2019-05-16T21:42:36.792Z,93.04
2019-05-16T21:45:09.222Z,93.53
2019-05-16T21:47:37.755Z,93.77
2019-05-16T21:50:11.349Z,93.94
2019-05-16T21:52:39.814Z,94.29
2019-05-16T21:55:09.370Z,94.60
2019-05-16T21:57:38.045Z,94.78
2019-05-16T22:00:14.126Z,95.17
2019-05-16T22:02:42.593Z,95.32
2019-05-16T22:05:11.309Z,95.35
2019-05-16T22:07:39.743Z,95.63
2019-05-16T22:10:08.319Z,95.71
2019-05-16T22:12:38.375Z,95.87
2019-05-16T22:15:07.410Z,95.75
2019-05-16T22:17:36.612Z,95.61
2019-05-16T22:20:07.114Z,95.52
2019-05-16T22:22:37.904Z,95.60
2019-05-16T22:25:07.641Z,95.79
2019-05-16T22:27:36.265Z,95.80
2019-05-16T22:30:07.797Z,95.81
2019-05-16T22:32:36.385Z,96.00
2019-05-16T22:35:07.890Z,95.90
2019-05-16T22:37:49.442Z,95.90
2019-05-16T22:40:07.819Z,96.17
2019-05-16T22:42:37.525Z,96.00
2019-05-16T22:45:08.988Z,96.16
2019-05-16T22:47:38.175Z,96.24
2019-05-16T22:50:08.405Z,96.45
2019-05-16T22:52:36.950Z,96.53
2019-05-16T22:55:07.406Z,96.65
2019-05-16T22:57:35.976Z,96.71
2019-05-16T23:00:09.446Z,96.84
2019-05-16T23:02:38.355Z,96.95
2019-05-16T23:05:07.334Z,97.12
2019-05-16T23:07:36.694Z,97.08
2019-05-16T23:10:07.289Z,97.01
2019-05-16T23:12:37.142Z,97.08
2019-05-16T23:15:06.624Z,97.14
2019-05-16T23:17:37.307Z,97.27
2019-05-16T23:20:07.157Z,97.35
2019-05-16T23:22:36.755Z,97.40
2019-05-16T23:25:06.731Z,97.56
2019-05-16T23:27:36.823Z,97.65
2019-05-16T23:30:08.392Z,97.78
2019-05-16T23:32:36.796Z,97.86
2019-05-16T23:35:07.946Z,97.84
2019-05-16T23:37:37.024Z,97.84
2019-05-16T23:40:06.423Z,97.82
2019-05-16T23:42:36.899Z,97.79
2019-05-16T23:45:08.983Z,97.90
2019-05-16T23:47:37.555Z,97.99
2019-05-16T23:50:07.921Z,98.12
2019-05-16T23:52:36.892Z,98.09
2019-05-16T23:55:08.151Z,98.37
2019-05-16T23:57:37.522Z,98.37
